Schaller, IA (51053)

9:13 AM CDT on September 23, 2014 (GMT -0500)
Ricklefs Home | Change Station
CLOSE
Current Station
Personal Weather Station
Location: Storm Lake, IA
Elevation: 1414 ft
Nearby Weather Stations

Elev 1414 ft 42.65 °N, 95.19 °W | Updated 3 minutes ago

Rain
Rain
55.8 °F
Feels Like 55.8 °F
N
1.0
Wind Variable Wind from ESE
Gusts 3.0 mph

Today
High -- | Low -- °F
--% Chance of Precip.
Yesterday
High -- | Low -- °F
Precip. -- in
7:09 AM 7:16 PM
Waning Crescent, 0% visible
Pressure 30.19 in
Visibility 10.0 miles
Clouds Scattered Clouds 3100 ft
Mostly Cloudy 7500 ft
Overcast 11000 ft
Dew Point 52 °F
Humidity 88%
Rainfall 0.00 in
Snow Depth Not available.
UV 0 out of 12
Pollen 2.20 out of 12
Air Quality Not available.
Flu Activity Not available.
METAR KCKP 231355Z AUTO 16006KT 10SM -RA SCT031 BKN075 OVC110 14/13 A3019 RMK AO2 T01350127

More Conditions Fewer Conditions

Pressure 30.19 in
Visibility 10.0 miles
Clouds Scattered Clouds 3100 ft
Mostly Cloudy 7500 ft
Overcast 11000 ft
Dew Point 52 °F
Humidity 88%
Rainfall 0.00 in
Snow Depth Not available.
UV 0 out of 12
Pollen 2.20 out of 12
Air Quality Not available.
Flu Activity Not available.
METAR KCKP 231355Z AUTO 16006KT 10SM -RA SCT031 BKN075 OVC110 14/13 A3019 RMK AO2 T01350127

More Conditions Fewer Conditions

10-Day Weather Forecast

Almanac

Astronomy

Sep. 23, 2014 Rise Set
Actual Time 7:09 AM CDT 7:16 PM CDT
Civil Twilight 6:41 AM CDT 7:44 PM CDT
Nautical Twilight 6:08 AM CDT 8:17 PM CDT
Astronomical Twilight 5:35 AM CDT 8:50 PM CDT
Moon 6:34 AM CDT 6:55 PM CDT
Length of Visible Light 13h 03m
Length of Day
12h 07m
Tomorrow will be 2m 52s shorter.
Waning Crescent, 0% of the Moon is Illuminated
Today
Waning Crescent
Sep 24
New
Oct 1
First Quarter
Oct 8
Full
Oct 15
Last Quarter

Today's Extremes

State Highs State Lows

Community

WunderPhotos

Upload Photos

1,755,693 photos uploaded!

Nearby

Snow Depth

Station Depth Elevation
No new snow has been reported.

Earthquake Activity

City Distance Mag. Time & Date
No recent earthquake activity has been reported nearby.
Minimum magnitude displayed is 2.5.

Coastal Water Temperatures

Place Temperature
No Stations Reporting

Nearby Weather Stations